Terminal Aerodrome Forecast
Issued by NWS

Current Version | Previous Version | Text Only | Print | Product List | Glossary On
Versions: 1 2 3 4 5 6 7 8 9 10 11 12 13 14 15 16 17 18 19 20 21 22 23 24 25 26 27 28 29 30 31
007 FTUS41 KOKX 241932 AAA TAFGON TAF AMD KGON 241932Z 2420/2518 23014G20KT P6SM OVC040 FM250500 24007KT P6SM SCT040 BKN080 FM251200 29004KT 4SM BR OVC003 FM251700 35006KT 4SM BR OVC015=

USA.gov is the U.S. government's official web portal to all federal, state and local government web resources and services.